sensor_id;sensor_type;location;lat;lon;timestamp;pressure;altitude;pressure_sealevel;temperature;humidity
50550;BME280;36505;52.512;13.460;2023-02-10T00:01:21;102674.53;;;1.59;62.83
50550;BME280;36505;52.512;13.460;2023-02-10T00:03:48;102668.69;;;1.64;62.87
50550;BME280;36505;52.512;13.460;2023-02-10T00:06:14;102671.25;;;1.66;62.87
50550;BME280;36505;52.512;13.460;2023-02-10T00:08:40;102671.25;;;1.66;63.00
50550;BME280;36505;52.512;13.460;2023-02-10T00:11:08;102670.88;;;1.70;63.07
50550;BME280;36505;52.512;13.460;2023-02-10T00:13:36;102671.41;;;1.74;63.03
50550;BME280;36505;52.512;13.460;2023-02-10T00:16:03;102673.00;;;1.76;62.85
50550;BME280;36505;52.512;13.460;2023-02-10T00:18:29;102669.31;;;1.77;62.66
50550;BME280;36505;52.512;13.460;2023-02-10T00:20:56;102669.16;;;1.79;62.69
50550;BME280;36505;52.512;13.460;2023-02-10T00:23:22;102664.91;;;1.76;62.59
50550;BME280;36505;52.512;13.460;2023-02-10T00:25:47;102671.84;;;1.79;62.92
50550;BME280;36505;52.512;13.460;2023-02-10T00:28:13;102672.84;;;1.78;62.65
50550;BME280;36505;52.512;13.460;2023-02-10T00:30:39;102680.50;;;1.73;62.99
50550;BME280;36505;52.512;13.460;2023-02-10T00:33:04;102683.50;;;1.70;63.13
50550;BME280;36505;52.512;13.460;2023-02-10T00:35:31;102671.13;;;1.67;63.05
50550;BME280;36505;52.512;13.460;2023-02-10T00:37:56;102673.09;;;1.65;63.21
50550;BME280;36505;52.512;13.460;2023-02-10T00:40:22;102678.06;;;1.60;63.40
50550;BME280;36505;52.512;13.460;2023-02-10T00:42:47;102678.34;;;1.57;64.03
50550;BME280;36505;52.512;13.460;2023-02-10T00:45:13;102674.66;;;1.58;63.77
50550;BME280;36505;52.512;13.460;2023-02-10T00:47:38;102681.03;;;1.57;63.61
50550;BME280;36505;52.512;13.460;2023-02-10T00:50:04;102680.91;;;1.58;63.77
50550;BME280;36505;52.512;13.460;2023-02-10T00:52:29;102685.31;;;1.59;63.95
50550;BME280;36505;52.512;13.460;2023-02-10T00:54:55;102683.47;;;1.60;64.01
50550;BME280;36505;52.512;13.460;2023-02-10T00:57:20;102694.72;;;1.65;64.21
50550;BME280;36505;52.512;13.460;2023-02-10T00:59:46;102692.72;;;1.67;64.41
50550;BME280;36505;52.512;13.460;2023-02-10T01:02:11;102690.03;;;1.67;64.34
50550;BME280;36505;52.512;13.460;2023-02-10T01:04:37;102695.31;;;1.69;64.69
50550;BME280;36505;52.512;13.460;2023-02-10T01:07:02;102703.09;;;1.72;64.65
50550;BME280;36505;52.512;13.460;2023-02-10T01:09:27;102693.16;;;1.72;65.08
50550;BME280;36505;52.512;13.460;2023-02-10T01:11:53;102709.09;;;1.75;65.10
50550;BME280;36505;52.512;13.460;2023-02-10T01:14:18;102709.81;;;1.77;64.49
50550;BME280;36505;52.512;13.460;2023-02-10T01:16:44;102702.28;;;1.81;64.74
50550;BME280;36505;52.512;13.460;2023-02-10T01:19:10;102705.97;;;1.80;64.53
50550;BME280;36505;52.512;13.460;2023-02-10T01:21:36;102708.50;;;1.72;64.56
50550;BME280;36505;52.512;13.460;2023-02-10T01:24:04;102709.94;;;1.66;64.67
50550;BME280;36505;52.512;13.460;2023-02-10T01:26:30;102703.38;;;1.59;64.76
50550;BME280;36505;52.512;13.460;2023-02-10T01:28:56;102706.75;;;1.51;65.16
50550;BME280;36505;52.512;13.460;2023-02-10T01:31:21;102709.03;;;1.46;66.26
50550;BME280;36505;52.512;13.460;2023-02-10T01:33:50;102706.00;;;1.40;66.03
50550;BME280;36505;52.512;13.460;2023-02-10T01:36:17;102708.41;;;1.33;66.10
50550;BME280;36505;52.512;13.460;2023-02-10T01:38:43;102710.66;;;1.28;66.67
50550;BME280;36505;52.512;13.460;2023-02-10T01:41:11;102713.91;;;1.22;67.03
50550;BME280;36505;52.512;13.460;2023-02-10T01:46:28;102704.66;;;1.15;67.32
50550;BME280;36505;52.512;13.460;2023-02-10T01:48:55;102706.75;;;1.11;67.48
50550;BME280;36505;52.512;13.460;2023-02-10T01:51:27;102700.63;;;1.09;67.43
50550;BME280;36505;52.512;13.460;2023-02-10T01:53:54;102692.09;;;1.04;67.86
50550;BME280;36505;52.512;13.460;2023-02-10T01:56:19;102686.97;;;1.01;68.29
50550;BME280;36505;52.512;13.460;2023-02-10T01:58:45;102672.75;;;0.99;68.42
50550;BME280;36505;52.512;13.460;2023-02-10T02:01:11;102679.44;;;0.95;68.64
50550;BME280;36505;52.512;13.460;2023-02-10T02:03:36;102691.34;;;0.93;68.83
50550;BME280;36505;52.512;13.460;2023-02-10T02:06:04;102687.03;;;0.90;69.32
50550;BME280;36505;52.512;13.460;2023-02-10T02:08:31;102698.81;;;0.89;69.22
50550;BME280;36505;52.512;13.460;2023-02-10T02:32:49;102705.78;;;0.61;70.70
50550;BME280;36505;52.512;13.460;2023-02-10T02:35:29;102712.16;;;0.60;70.88
50550;BME280;36505;52.512;13.460;2023-02-10T02:37:56;102718.13;;;0.64;70.57
50550;BME280;36505;52.512;13.460;2023-02-10T02:40:22;102714.00;;;0.60;70.93
50550;BME280;36505;52.512;13.460;2023-02-10T02:42:48;102709.59;;;0.59;71.04
50550;BME280;36505;52.512;13.460;2023-02-10T02:45:32;102711.28;;;0.60;71.63
50550;BME280;36505;52.512;13.460;2023-02-10T02:50:45;102707.63;;;0.61;71.57
50550;BME280;36505;52.512;13.460;2023-02-10T02:58:16;102706.69;;;0.71;71.31
50550;BME280;36505;52.512;13.460;2023-02-10T03:00:44;102710.09;;;0.73;71.24
50550;BME280;36505;52.512;13.460;2023-02-10T03:03:11;102708.38;;;0.72;71.25
50550;BME280;36505;52.512;13.460;2023-02-10T03:05:37;102716.81;;;0.79;70.98
50550;BME280;36505;52.512;13.460;2023-02-10T03:08:03;102712.16;;;0.81;71.01
50550;BME280;36505;52.512;13.460;2023-02-10T03:10:28;102715.69;;;0.82;70.91
50550;BME280;36505;52.512;13.460;2023-02-10T03:12:54;102721.91;;;0.82;70.97
50550;BME280;36505;52.512;13.460;2023-02-10T03:15:19;102719.38;;;0.81;71.33
50550;BME280;36505;52.512;13.460;2023-02-10T03:17:45;102721.09;;;0.82;71.23
50550;BME280;36505;52.512;13.460;2023-02-10T03:20:11;102727.31;;;0.82;70.78
50550;BME280;36505;52.512;13.460;2023-02-10T03:22:36;102722.66;;;0.84;70.87
50550;BME280;36505;52.512;13.460;2023-02-10T03:25:02;102722.66;;;0.84;70.73
50550;BME280;36505;52.512;13.460;2023-02-10T03:27:27;102728.91;;;0.85;70.84
50550;BME280;36505;52.512;13.460;2023-02-10T03:29:53;102734.16;;;0.86;70.81
50550;BME280;36505;52.512;13.460;2023-02-10T03:32:19;102724.09;;;0.88;70.78
50550;BME280;36505;52.512;13.460;2023-02-10T03:34:44;102723.94;;;0.90;70.65
50550;BME280;36505;52.512;13.460;2023-02-10T03:37:10;102727.25;;;0.93;70.47
50550;BME280;36505;52.512;13.460;2023-02-10T03:39:36;102727.13;;;0.95;70.75
50550;BME280;36505;52.512;13.460;2023-02-10T03:42:01;102730.41;;;0.98;70.78
50550;BME280;36505;52.512;13.460;2023-02-10T03:44:27;102738.38;;;1.00;70.91
50550;BME280;36505;52.512;13.460;2023-02-10T03:46:52;102731.13;;;1.00;70.66
50550;BME280;36505;52.512;13.460;2023-02-10T03:49:17;102730.84;;;1.03;71.05
50550;BME280;36505;52.512;13.460;2023-02-10T03:51:43;102734.41;;;1.04;71.58
50550;BME280;36505;52.512;13.460;2023-02-10T03:54:08;102741.56;;;1.14;71.67
50550;BME280;36505;52.512;13.460;2023-02-10T03:56:34;102750.09;;;1.19;71.44
50550;BME280;36505;52.512;13.460;2023-02-10T03:59:01;102756.38;;;1.20;71.63
50550;BME280;36505;52.512;13.460;2023-02-10T04:01:27;102749.13;;;1.21;71.43
50550;BME280;36505;52.512;13.460;2023-02-10T04:03:52;102748.84;;;1.24;71.51
50550;BME280;36505;52.512;13.460;2023-02-10T04:06:17;102736.81;;;1.28;71.57
50550;BME280;36505;52.512;13.460;2023-02-10T04:08:43;102736.50;;;1.31;71.71
50550;BME280;36505;52.512;13.460;2023-02-10T04:11:08;102737.13;;;1.34;71.99
50550;BME280;36505;52.512;13.460;2023-02-10T04:13:35;102726.19;;;1.36;71.98
50550;BME280;36505;52.512;13.460;2023-02-10T04:16:05;102713.69;;;1.35;71.98
50550;BME280;36505;52.512;13.460;2023-02-10T04:18:31;102716.81;;;1.40;72.28
50550;BME280;36505;52.512;13.460;2023-02-10T04:20:58;102707.72;;;1.41;72.53
50550;BME280;36505;52.512;13.460;2023-02-10T04:23:26;102710.44;;;1.41;72.52
50550;BME280;36505;52.512;13.460;2023-02-10T04:25:51;102721.22;;;1.41;72.55
50550;BME280;36505;52.512;13.460;2023-02-10T04:28:17;102716.69;;;1.41;73.05
50550;BME280;36505;52.512;13.460;2023-02-10T04:30:42;102727.19;;;1.44;72.93
50550;BME280;36505;52.512;13.460;2023-02-10T04:33:07;102735.59;;;1.51;72.83
50550;BME280;36505;52.512;13.460;2023-02-10T04:35:33;102732.75;;;1.52;72.91
50550;BME280;36505;52.512;13.460;2023-02-10T04:37:58;102732.75;;;1.52;72.73
50550;BME280;36505;52.512;13.460;2023-02-10T04:40:24;102732.75;;;1.52;72.74
50550;BME280;36505;52.512;13.460;2023-02-10T04:42:49;102741.72;;;1.53;72.83
50550;BME280;36505;52.512;13.460;2023-02-10T04:45:15;102734.22;;;1.56;73.36
50550;BME280;36505;52.512;13.460;2023-02-10T04:47:40;102738.47;;;1.59;72.76
50550;BME280;36505;52.512;13.460;2023-02-10T04:50:06;102742.03;;;1.59;72.95
50550;BME280;36505;52.512;13.460;2023-02-10T04:52:31;102750.00;;;1.61;73.08
50550;BME280;36505;52.512;13.460;2023-02-10T04:54:56;102747.16;;;1.63;73.44
50550;BME280;36505;52.512;13.460;2023-02-10T04:57:22;102751.72;;;1.62;73.21
50550;BME280;36505;52.512;13.460;2023-02-10T04:59:47;102752.41;;;1.64;73.28
50550;BME280;36505;52.512;13.460;2023-02-10T05:02:13;102750.72;;;1.63;73.46
50550;BME280;36505;52.512;13.460;2023-02-10T05:04:38;102744.59;;;1.61;73.94
50550;BME280;36505;52.512;13.460;2023-02-10T05:07:04;102757.13;;;1.62;74.15
50550;BME280;36505;52.512;13.460;2023-02-10T05:09:29;102754.28;;;1.64;74.46
50550;BME280;36505;52.512;13.460;2023-02-10T05:11:54;102751.28;;;1.67;74.08
50550;BME280;36505;52.512;13.460;2023-02-10T05:14:20;102760.97;;;1.69;74.48
50550;BME280;36505;52.512;13.460;2023-02-10T05:16:45;102759.13;;;1.70;74.50
50550;BME280;36505;52.512;13.460;2023-02-10T05:19:10;102756.56;;;1.68;74.40
50550;BME280;36505;52.512;13.460;2023-02-10T05:21:36;102753.44;;;1.73;74.38
50550;BME280;36505;52.512;13.460;2023-02-10T05:24:02;102759.69;;;1.73;74.57
50550;BME280;36505;52.512;13.460;2023-02-10T05:26:27;102753.44;;;1.73;74.56
50550;BME280;36505;52.512;13.460;2023-02-10T05:28:53;102754.59;;;1.70;75.11
50550;BME280;36505;52.512;13.460;2023-02-10T05:31:18;102754.41;;;1.72;74.84
50550;BME280;36505;52.512;13.460;2023-02-10T05:33:44;102753.31;;;1.74;74.62
50550;BME280;36505;52.512;13.460;2023-02-10T05:36:09;102754.88;;;1.77;74.99
50550;BME280;36505;52.512;13.460;2023-02-10T05:38:34;102752.88;;;1.79;75.09
50550;BME280;36505;52.512;13.460;2023-02-10T05:41:01;102752.88;;;1.79;75.13
50550;BME280;36505;52.512;13.460;2023-02-10T05:43:26;102746.50;;;1.80;75.03
50550;BME280;36505;52.512;13.460;2023-02-10T05:45:51;102761.41;;;1.74;75.36
50550;BME280;36505;52.512;13.460;2023-02-10T05:48:17;102767.63;;;1.65;75.46
50550;BME280;36505;52.512;13.460;2023-02-10T05:50:42;102773.31;;;1.62;75.78
50550;BME280;36505;52.512;13.460;2023-02-10T05:53:08;102765.59;;;1.57;75.71
50550;BME280;36505;52.512;13.460;2023-02-10T05:55:34;102757.66;;;1.56;76.15
50550;BME280;36505;52.512;13.460;2023-02-10T05:57:59;102763.19;;;1.54;76.06
50550;BME280;36505;52.512;13.460;2023-02-10T06:00:24;102755.63;;;1.48;76.31
50550;BME280;36505;52.512;13.460;2023-02-10T06:02:50;102752.47;;;1.43;76.63
50550;BME280;36505;52.512;13.460;2023-02-10T06:05:15;102757.56;;;1.37;76.63
50550;BME280;36505;52.512;13.460;2023-02-10T06:07:41;102762.25;;;1.35;77.11
50550;BME280;36505;52.512;13.460;2023-02-10T06:10:06;102774.03;;;1.34;76.99
50550;BME280;36505;52.512;13.460;2023-02-10T06:12:32;102773.19;;;1.33;77.67
50550;BME280;36505;52.512;13.460;2023-02-10T06:14:58;102770.16;;;1.27;77.68
50550;BME280;36505;52.512;13.460;2023-02-10T06:17:23;102771.16;;;1.26;77.68
50550;BME280;36505;52.512;13.460;2023-02-10T06:19:49;102773.28;;;1.22;77.99
50550;BME280;36505;52.512;13.460;2023-02-10T06:22:15;102776.09;;;1.21;78.09
50550;BME280;36505;52.512;13.460;2023-02-10T06:24:40;102788.47;;;1.23;78.53
50550;BME280;36505;52.512;13.460;2023-02-10T06:27:06;102791.31;;;1.22;78.51
50550;BME280;36505;52.512;13.460;2023-02-10T06:29:32;102786.78;;;1.22;78.80
50550;BME280;36505;52.512;13.460;2023-02-10T06:31:57;102793.28;;;1.19;78.87
50550;BME280;36505;52.512;13.460;2023-02-10T06:34:23;102797.94;;;1.17;78.81
50550;BME280;36505;52.512;13.460;2023-02-10T06:36:48;102804.81;;;1.22;79.47
50550;BME280;36505;52.512;13.460;2023-02-10T06:39:13;102807.34;;;1.23;80.10
50550;BME280;36505;52.512;13.460;2023-02-10T06:41:39;102795.84;;;1.21;79.99
50550;BME280;36505;52.512;13.460;2023-02-10T06:44:04;102793.28;;;1.19;79.71
50550;BME280;36505;52.512;13.460;2023-02-10T06:46:30;102805.50;;;1.24;79.87
50550;BME280;36505;52.512;13.460;2023-02-10T06:48:56;102808.09;;;1.25;79.53
50550;BME280;36505;52.512;13.460;2023-02-10T06:51:21;102807.97;;;1.27;79.99
50550;BME280;36505;52.512;13.460;2023-02-10T06:53:47;102799.00;;;1.26;79.91
50550;BME280;36505;52.512;13.460;2023-02-10T06:56:13;102804.16;;;1.29;79.93
50550;BME280;36505;52.512;13.460;2023-02-10T06:58:38;102812.56;;;1.36;79.53
50550;BME280;36505;52.512;13.460;2023-02-10T07:01:11;102819.97;;;1.43;79.86
50550;BME280;36505;52.512;13.460;2023-02-10T07:03:38;102819.69;;;1.46;79.76
50550;BME280;36505;52.512;13.460;2023-02-10T07:06:04;102825.72;;;1.50;79.28
50550;BME280;36505;52.512;13.460;2023-02-10T07:08:29;102830.81;;;1.53;79.05
50550;BME280;36505;52.512;13.460;2023-02-10T07:10:55;102822.31;;;1.57;79.26
50550;BME280;36505;52.512;13.460;2023-02-10T07:13:20;102821.78;;;1.64;78.83
50550;BME280;36505;52.512;13.460;2023-02-10T07:15:46;102820.66;;;1.66;78.72
50550;BME280;36505;52.512;13.460;2023-02-10T07:18:11;102829.66;;;1.76;78.48
50550;BME280;36505;52.512;13.460;2023-02-10T07:20:37;102829.25;;;1.81;78.48
50550;BME280;36505;52.512;13.460;2023-02-10T07:23:02;102836.66;;;1.88;78.25
50550;BME280;36505;52.512;13.460;2023-02-10T07:25:28;102835.38;;;1.92;77.93
50550;BME280;36505;52.512;13.460;2023-02-10T07:27:53;102842.00;;;2.09;77.92
50550;BME280;36505;52.512;13.460;2023-02-10T07:30:19;102851.44;;;2.24;77.29
50550;BME280;36505;52.512;13.460;2023-02-10T07:32:44;102851.44;;;2.34;76.89
50550;BME280;36505;52.512;13.460;2023-02-10T07:35:11;102852.75;;;2.49;76.69
50550;BME280;36505;52.512;13.460;2023-02-10T07:37:37;102837.25;;;2.70;76.02
50550;BME280;36505;52.512;13.460;2023-02-10T07:40:03;102848.50;;;2.85;75.30
50550;BME280;36505;52.512;13.460;2023-02-10T07:42:29;102849.63;;;2.92;75.24
50550;BME280;36505;52.512;13.460;2023-02-10T07:44:57;102848.91;;;3.00;74.64
50550;BME280;36505;52.512;13.460;2023-02-10T07:47:22;102844.47;;;3.18;74.38
50550;BME280;36505;52.512;13.460;2023-02-10T07:49:47;102848.72;;;3.40;73.97
50550;BME280;36505;52.512;13.460;2023-02-10T07:52:13;102854.13;;;3.40;73.55
50550;BME280;36505;52.512;13.460;2023-02-10T07:54:38;102855.13;;;3.39;72.80
50550;BME280;36505;52.512;13.460;2023-02-10T07:57:03;102863.38;;;3.37;72.96
50550;BME280;36505;52.512;13.460;2023-02-10T07:59:29;102858.81;;;3.28;73.27
50550;BME280;36505;52.512;13.460;2023-02-10T08:01:54;102863.38;;;3.37;73.12
50550;BME280;36505;52.512;13.460;2023-02-10T08:04:20;102869.66;;;3.38;72.82
50550;BME280;36505;52.512;13.460;2023-02-10T08:06:45;102851.56;;;3.38;72.82
50550;BME280;36505;52.512;13.460;2023-02-10T08:09:11;102871.06;;;3.42;72.86
50550;BME280;36505;52.512;13.460;2023-02-10T08:11:36;102870.63;;;3.46;73.09
50550;BME280;36505;52.512;13.460;2023-02-10T08:14:02;102877.00;;;3.55;72.60
50550;BME280;36505;52.512;13.460;2023-02-10T08:16:28;102885.25;;;3.73;72.50
50550;BME280;36505;52.512;13.460;2023-02-10T08:18:54;102880.22;;;3.87;72.22
50550;BME280;36505;52.512;13.460;2023-02-10T08:21:19;102868.63;;;3.95;71.84
50550;BME280;36505;52.512;13.460;2023-02-10T08:23:45;102881.97;;;4.06;71.41
50550;BME280;36505;52.512;13.460;2023-02-10T08:26:12;102875.94;;;4.12;71.08
50550;BME280;36505;52.512;13.460;2023-02-10T08:28:38;102880.34;;;4.23;70.93
50550;BME280;36505;52.512;13.460;2023-02-10T08:31:05;102889.09;;;4.34;71.04
50550;BME280;36505;52.512;13.460;2023-02-10T08:33:35;102890.47;;;4.48;70.46
50550;BME280;36505;52.512;13.460;2023-02-10T08:36:10;102892.09;;;4.59;69.78
50550;BME280;36505;52.512;13.460;2023-02-10T08:38:36;102901.19;;;4.67;69.52
50550;BME280;36505;52.512;13.460;2023-02-10T08:41:01;102897.84;;;4.73;69.22
50550;BME280;36505;52.512;13.460;2023-02-10T08:43:27;102893.50;;;4.81;69.24
50550;BME280;36505;52.512;13.460;2023-02-10T08:45:58;102885.13;;;4.92;68.54
50550;BME280;36505;52.512;13.460;2023-02-10T08:48:24;102892.97;;;4.95;68.39
50550;BME280;36505;52.512;13.460;2023-02-10T08:50:50;102890.78;;;4.98;68.42
50550;BME280;36505;52.512;13.460;2023-02-10T08:53:16;102890.78;;;5.16;68.47
50550;BME280;36505;52.512;13.460;2023-02-10T08:55:41;102896.34;;;5.32;67.79
50550;BME280;36505;52.512;13.460;2023-02-10T08:58:07;102894.53;;;5.41;67.64
50550;BME280;36505;52.512;13.460;2023-02-10T09:00:33;102883.75;;;5.49;66.83
50550;BME280;36505;52.512;13.460;2023-02-10T09:02:59;102890.94;;;5.58;66.48
50550;BME280;36505;52.512;13.460;2023-02-10T09:05:24;102891.03;;;5.48;66.84
50550;BME280;36505;52.512;13.460;2023-02-10T09:07:49;102894.09;;;5.45;67.03
50550;BME280;36505;52.512;13.460;2023-02-10T09:10:15;102886.81;;;5.54;66.80
50550;BME280;36505;52.512;13.460;2023-02-10T09:12:42;102887.47;;;5.74;66.12
50550;BME280;36505;52.512;13.460;2023-02-10T09:15:08;102885.13;;;5.79;65.83
50550;BME280;36505;52.512;13.460;2023-02-10T09:17:34;102886.25;;;5.68;66.35
50550;BME280;36505;52.512;13.460;2023-02-10T09:19:59;102895.94;;;5.71;66.47
50550;BME280;36505;52.512;13.460;2023-02-10T09:22:25;102898.53;;;5.80;66.31
50550;BME280;36505;52.512;13.460;2023-02-10T09:24:50;102907.53;;;5.99;66.13
50550;BME280;36505;52.512;13.460;2023-02-10T09:27:18;102911.03;;;6.17;65.29
50550;BME280;36505;52.512;13.460;2023-02-10T09:29:44;102910.59;;;6.38;64.64
50550;BME280;36505;52.512;13.460;2023-02-10T09:32:09;102895.50;;;6.51;64.12
50550;BME280;36505;52.512;13.460;2023-02-10T09:34:34;102907.81;;;6.71;63.51
50550;BME280;36505;52.512;13.460;2023-02-10T09:37:00;102912.78;;;7.65;61.50
50550;BME280;36505;52.512;13.460;2023-02-10T09:39:28;102908.38;;;8.19;59.83
50550;BME280;36505;52.512;13.460;2023-02-10T09:42:44;102911.25;;;8.42;58.53
50550;BME280;36505;52.512;13.460;2023-02-10T09:44:52;102911.47;;;8.63;57.41
50550;BME280;36505;52.512;13.460;2023-02-10T09:50:08;102911.00;;;9.28;56.23
50550;BME280;36505;52.512;13.460;2023-02-10T09:55:20;102932.66;;;9.15;56.27
50550;BME280;36505;52.512;13.460;2023-02-10T09:57:54;102923.44;;;8.93;56.20
50550;BME280;36505;52.512;13.460;2023-02-10T10:00:30;102932.03;;;8.82;56.52
50550;BME280;36505;52.512;13.460;2023-02-10T10:02:58;102928.69;;;8.72;57.12
50550;BME280;36505;52.512;13.460;2023-02-10T10:08:00;102927.63;;;8.42;57.63
50550;BME280;36505;52.512;13.460;2023-02-10T10:12:57;102930.94;;;8.13;58.43
50550;BME280;36505;52.512;13.460;2023-02-10T10:15:34;102938.50;;;7.87;59.44
50550;BME280;36505;52.512;13.460;2023-02-10T10:20:51;102937.84;;;7.69;60.06
50550;BME280;36505;52.512;13.460;2023-02-10T10:25:52;102939.06;;;7.42;60.73
50550;BME280;36505;52.512;13.460;2023-02-10T10:28:51;102947.59;;;7.23;61.46
50550;BME280;36505;52.512;13.460;2023-02-10T10:31:24;102941.97;;;7.16;61.60
50550;BME280;36505;52.512;13.460;2023-02-10T10:36:46;102943.66;;;7.09;62.46
50550;BME280;36505;52.512;13.460;2023-02-10T10:39:35;102951.63;;;7.10;62.51
50550;BME280;36505;52.512;13.460;2023-02-10T10:44:50;102931.69;;;6.94;62.93
50550;BME280;36505;52.512;13.460;2023-02-10T10:47:21;102934.75;;;6.99;63.07
50550;BME280;36505;52.512;13.460;2023-02-10T10:49:52;102938.84;;;7.03;62.86
50550;BME280;36505;52.512;13.460;2023-02-10T10:52:29;102937.81;;;7.04;63.13
50550;BME280;36505;52.512;13.460;2023-02-10T10:55:02;102938.00;;;7.10;63.05
50550;BME280;36505;52.512;13.460;2023-02-10T10:57:28;102933.06;;;7.06;63.14
50550;BME280;36505;52.512;13.460;2023-02-10T11:00:01;102930.34;;;7.06;63.31
50550;BME280;36505;52.512;13.460;2023-02-10T11:02:28;102911.44;;;6.96;63.27
50550;BME280;36505;52.512;13.460;2023-02-10T11:07:31;102915.69;;;6.99;63.22
50550;BME280;36505;52.512;13.460;2023-02-10T11:09:58;102913.97;;;6.90;63.62
50550;BME280;36505;52.512;13.460;2023-02-10T11:12:28;102918.41;;;6.99;63.74
50550;BME280;36505;52.512;13.460;2023-02-10T11:14:55;102909.72;;;7.03;63.47
50550;BME280;36505;52.512;13.460;2023-02-10T11:22:36;102898.31;;;7.65;62.33
50550;BME280;36505;52.512;13.460;2023-02-10T11:25:05;102901.84;;;7.98;61.72
50550;BME280;36505;52.512;13.460;2023-02-10T11:27:53;102900.97;;;7.97;61.03
50550;BME280;36505;52.512;13.460;2023-02-10T11:32:50;102891.50;;;7.77;61.00
50550;BME280;36505;52.512;13.460;2023-02-10T11:35:16;102890.13;;;7.73;61.80
50550;BME280;36505;52.512;13.460;2023-02-10T11:37:42;102901.19;;;7.79;61.40
50550;BME280;36505;52.512;13.460;2023-02-10T11:42:46;102878.19;;;7.66;61.59
50550;BME280;36505;52.512;13.460;2023-02-10T11:47:44;102877.56;;;7.56;62.31
50550;BME280;36505;52.512;13.460;2023-02-10T11:52:45;102888.72;;;7.85;61.59
50550;BME280;36505;52.512;13.460;2023-02-10T11:55:15;102881.91;;;7.81;61.33
50550;BME280;36505;52.512;13.460;2023-02-10T12:08:36;102888.78;;;7.52;62.32
50550;BME280;36505;52.512;13.460;2023-02-10T12:11:24;102887.97;;;7.36;63.33
50550;BME280;36505;52.512;13.460;2023-02-10T12:14:18;102875.19;;;7.28;63.42
50550;BME280;36505;52.512;13.460;2023-02-10T12:25:11;102880.81;;;7.35;63.57
50550;BME280;36505;52.512;13.460;2023-02-10T12:27:45;102872.47;;;7.36;63.51
50550;BME280;36505;52.512;13.460;2023-02-10T12:30:34;102874.34;;;7.28;63.69
50550;BME280;36505;52.512;13.460;2023-02-10T12:53:52;102853.38;;;7.28;63.86
50550;BME280;36505;52.512;13.460;2023-02-10T12:56:23;102835.00;;;7.14;63.91
50550;BME280;36505;52.512;13.460;2023-02-10T12:58:53;102853.38;;;7.20;64.28
50550;BME280;36505;52.512;13.460;2023-02-10T13:01:29;102856.44;;;7.17;64.36
50550;BME280;36505;52.512;13.460;2023-02-10T13:04:11;102856.47;;;7.09;64.73
50550;BME280;36505;52.512;13.460;2023-02-10T13:06:46;102864.66;;;7.09;64.57
50550;BME280;36505;52.512;13.460;2023-02-10T13:12:28;102857.47;;;6.84;65.39
50550;BME280;36505;52.512;13.460;2023-02-10T13:15:05;102850.97;;;6.77;65.43
50550;BME280;36505;52.512;13.460;2023-02-10T13:17:43;102854.72;;;6.75;65.64
50550;BME280;36505;52.512;13.460;2023-02-10T13:22:49;102841.44;;;6.72;65.76
50550;BME280;36505;52.512;13.460;2023-02-10T13:25:45;102839.06;;;6.78;65.61
50550;BME280;36505;52.512;13.460;2023-02-10T13:33:14;102840.09;;;6.77;65.95
50550;BME280;36505;52.512;13.460;2023-02-10T13:35:43;102843.16;;;6.73;65.98
50550;BME280;36505;52.512;13.460;2023-02-10T13:38:15;102840.09;;;6.68;65.98
50550;BME280;36505;52.512;13.460;2023-02-10T13:40:49;102844.84;;;6.66;66.15
50550;BME280;36505;52.512;13.460;2023-02-10T13:45:50;102847.22;;;6.53;66.67
50550;BME280;36505;52.512;13.460;2023-02-10T13:48:27;102842.44;;;6.55;66.66
50550;BME280;36505;52.512;13.460;2023-02-10T13:51:00;102847.53;;;6.50;66.89
50550;BME280;36505;52.512;13.460;2023-02-10T13:56:28;102848.91;;;6.54;67.30
50550;BME280;36505;52.512;13.460;2023-02-10T13:59:04;102846.19;;;6.54;67.14
50550;BME280;36505;52.512;13.460;2023-02-10T14:04:01;102843.97;;;6.58;67.12
50550;BME280;36505;52.512;13.460;2023-02-10T14:06:38;102832.91;;;6.51;67.15
50550;BME280;36505;52.512;13.460;2023-02-10T14:11:59;102825.94;;;6.57;67.43
50550;BME280;36505;52.512;13.460;2023-02-10T14:14:26;102818.47;;;6.59;67.03
50550;BME280;36505;52.512;13.460;2023-02-10T14:16:52;102823.75;;;6.60;67.13
50550;BME280;36505;52.512;13.460;2023-02-10T14:19:37;102817.09;;;6.63;67.11
50550;BME280;36505;52.512;13.460;2023-02-10T14:22:04;102815.22;;;6.63;66.99
50550;BME280;36505;52.512;13.460;2023-02-10T14:24:33;102816.78;;;6.66;67.31
50550;BME280;36505;52.512;13.460;2023-02-10T14:27:04;102815.59;;;6.68;66.94
50550;BME280;36505;52.512;13.460;2023-02-10T14:29:33;102815.59;;;6.68;66.87
50550;BME280;36505;52.512;13.460;2023-02-10T14:32:02;102813.19;;;6.65;66.54
50550;BME280;36505;52.512;13.460;2023-02-10T14:34:35;102801.59;;;6.55;66.89
50550;BME280;36505;52.512;13.460;2023-02-10T14:39:37;102800.94;;;6.53;67.01
50550;BME280;36505;52.512;13.460;2023-02-10T14:42:04;102799.22;;;6.52;66.86
50550;BME280;36505;52.512;13.460;2023-02-10T14:46:58;102800.06;;;6.45;67.13
50550;BME280;36505;52.512;13.460;2023-02-10T14:49:24;102808.75;;;6.48;67.31
50550;BME280;36505;52.512;13.460;2023-02-10T14:51:50;102799.91;;;6.46;66.96
50550;BME280;36505;52.512;13.460;2023-02-10T14:54:18;102802.63;;;6.46;66.90
50550;BME280;36505;52.512;13.460;2023-02-10T14:59:24;102801.94;;;6.44;67.25
50550;BME280;36505;52.512;13.460;2023-02-10T15:01:52;102793.28;;;6.41;66.95
50550;BME280;36505;52.512;13.460;2023-02-10T15:04:18;102798.69;;;6.32;67.37
50550;BME280;36505;52.512;13.460;2023-02-10T15:06:45;102799.69;;;6.31;67.25
50550;BME280;36505;52.512;13.460;2023-02-10T15:09:16;102793.91;;;6.26;67.58
50550;BME280;36505;52.512;13.460;2023-02-10T15:11:46;102798.81;;;6.23;67.65
50550;BME280;36505;52.512;13.460;2023-02-10T15:14:35;102800.53;;;6.24;67.80